sensor_id;sensor_type;location;lat;lon;timestamp;temperature;humidity
11764;DHT22;5939;56.522;14.950;2022-11-20T00:00:24;3.20;99.90
11764;DHT22;5939;56.522;14.950;2022-11-20T00:02:50;3.20;99.90
11764;DHT22;5939;56.522;14.950;2022-11-20T00:05:16;3.10;99.90
11764;DHT22;5939;56.522;14.950;2022-11-20T00:07:42;3.10;99.90
11764;DHT22;5939;56.522;14.950;2022-11-20T00:10:08;3.10;99.90
11764;DHT22;5939;56.522;14.950;2022-11-20T00:12:34;3.10;99.90
11764;DHT22;5939;56.522;14.950;2022-11-20T00:15:00;3.10;99.90
11764;DHT22;5939;56.522;14.950;2022-11-20T00:17:26;3.10;99.90
11764;DHT22;5939;56.522;14.950;2022-11-20T00:19:51;3.10;99.90
11764;DHT22;5939;56.522;14.950;2022-11-20T00:22:17;3.10;99.90
11764;DHT22;5939;56.522;14.950;2022-11-20T00:24:42;3.10;99.90
11764;DHT22;5939;56.522;14.950;2022-11-20T00:27:08;3.10;99.90
11764;DHT22;5939;56.522;14.950;2022-11-20T00:29:34;3.00;99.90
11764;DHT22;5939;56.522;14.950;2022-11-20T00:31:59;3.00;99.90
11764;DHT22;5939;56.522;14.950;2022-11-20T00:34:25;3.00;99.90
11764;DHT22;5939;56.522;14.950;2022-11-20T00:36:51;3.00;99.90
11764;DHT22;5939;56.522;14.950;2022-11-20T00:39:16;3.00;99.90
11764;DHT22;5939;56.522;14.950;2022-11-20T00:41:42;3.00;99.90
11764;DHT22;5939;56.522;14.950;2022-11-20T00:44:08;3.00;99.90
11764;DHT22;5939;56.522;14.950;2022-11-20T00:46:33;3.00;99.90
11764;DHT22;5939;56.522;14.950;2022-11-20T00:48:59;3.00;99.90
11764;DHT22;5939;56.522;14.950;2022-11-20T00:51:26;3.00;99.90
11764;DHT22;5939;56.522;14.950;2022-11-20T00:53:55;3.00;99.90
11764;DHT22;5939;56.522;14.950;2022-11-20T00:56:21;2.90;99.90
11764;DHT22;5939;56.522;14.950;2022-11-20T00:58:48;2.90;99.90
11764;DHT22;5939;56.522;14.950;2022-11-20T01:01:19;2.90;99.90
11764;DHT22;5939;56.522;14.950;2022-11-20T01:03:50;2.90;99.90
11764;DHT22;5939;56.522;14.950;2022-11-20T01:06:19;2.90;99.90
11764;DHT22;5939;56.522;14.950;2022-11-20T01:08:45;2.90;99.90
11764;DHT22;5939;56.522;14.950;2022-11-20T01:11:17;2.90;99.90
11764;DHT22;5939;56.522;14.950;2022-11-20T01:13:46;2.90;99.90
11764;DHT22;5939;56.522;14.950;2022-11-20T01:16:15;2.90;99.90
11764;DHT22;5939;56.522;14.950;2022-11-20T01:18:42;2.90;99.90
11764;DHT22;5939;56.522;14.950;2022-11-20T01:21:14;2.90;99.90
11764;DHT22;5939;56.522;14.950;2022-11-20T01:23:42;2.90;99.90
11764;DHT22;5939;56.522;14.950;2022-11-20T01:26:29;2.80;99.90
11764;DHT22;5939;56.522;14.950;2022-11-20T01:28:56;2.80;99.90
11764;DHT22;5939;56.522;14.950;2022-11-20T01:31:33;2.80;99.90
11764;DHT22;5939;56.522;14.950;2022-11-20T01:34:04;2.80;99.90
11764;DHT22;5939;56.522;14.950;2022-11-20T01:36:33;2.80;99.90
11764;DHT22;5939;56.522;14.950;2022-11-20T01:39:04;2.80;99.90
11764;DHT22;5939;56.522;14.950;2022-11-20T01:41:31;2.80;99.90
11764;DHT22;5939;56.522;14.950;2022-11-20T01:44:19;2.80;99.90
11764;DHT22;5939;56.522;14.950;2022-11-20T01:46:57;2.80;99.90
11764;DHT22;5939;56.522;14.950;2022-11-20T01:49:39;2.70;99.90
11764;DHT22;5939;56.522;14.950;2022-11-20T01:52:23;2.70;99.90
11764;DHT22;5939;56.522;14.950;2022-11-20T01:55:07;2.70;99.90
11764;DHT22;5939;56.522;14.950;2022-11-20T01:57:34;2.70;99.90
11764;DHT22;5939;56.522;14.950;2022-11-20T02:00:07;2.70;99.90
11764;DHT22;5939;56.522;14.950;2022-11-20T02:02:34;2.70;99.90
11764;DHT22;5939;56.522;14.950;2022-11-20T02:05:04;2.70;99.90
11764;DHT22;5939;56.522;14.950;2022-11-20T02:07:33;2.70;99.90
11764;DHT22;5939;56.522;14.950;2022-11-20T02:09:58;2.60;99.90
11764;DHT22;5939;56.522;14.950;2022-11-20T02:12:24;2.70;99.90
11764;DHT22;5939;56.522;14.950;2022-11-20T02:15:08;2.70;99.90
11764;DHT22;5939;56.522;14.950;2022-11-20T02:17:34;2.60;99.90
11764;DHT22;5939;56.522;14.950;2022-11-20T02:20:00;2.60;99.90
11764;DHT22;5939;56.522;14.950;2022-11-20T02:22:36;2.60;99.90
11764;DHT22;5939;56.522;14.950;2022-11-20T02:25:05;2.60;99.90
11764;DHT22;5939;56.522;14.950;2022-11-20T02:27:32;2.60;99.90
11764;DHT22;5939;56.522;14.950;2022-11-20T02:30:03;2.60;99.90
11764;DHT22;5939;56.522;14.950;2022-11-20T02:32:32;2.60;99.90
11764;DHT22;5939;56.522;14.950;2022-11-20T02:35:06;2.60;99.90
11764;DHT22;5939;56.522;14.950;2022-11-20T02:37:38;2.50;99.90
11764;DHT22;5939;56.522;14.950;2022-11-20T02:40:06;2.50;99.90
11764;DHT22;5939;56.522;14.950;2022-11-20T02:42:31;2.50;99.90
11764;DHT22;5939;56.522;14.950;2022-11-20T02:44:57;2.50;99.90
11764;DHT22;5939;56.522;14.950;2022-11-20T02:47:23;2.50;99.90
11764;DHT22;5939;56.522;14.950;2022-11-20T02:49:48;2.50;99.90
11764;DHT22;5939;56.522;14.950;2022-11-20T02:52:14;2.50;99.90
11764;DHT22;5939;56.522;14.950;2022-11-20T02:54:39;2.50;99.90
11764;DHT22;5939;56.522;14.950;2022-11-20T02:57:05;2.50;99.90
11764;DHT22;5939;56.522;14.950;2022-11-20T02:59:30;2.50;99.90
11764;DHT22;5939;56.522;14.950;2022-11-20T03:01:56;2.50;99.90
11764;DHT22;5939;56.522;14.950;2022-11-20T03:04:22;2.40;99.90
11764;DHT22;5939;56.522;14.950;2022-11-20T03:06:47;2.50;99.90
11764;DHT22;5939;56.522;14.950;2022-11-20T03:09:13;2.40;99.90
11764;DHT22;5939;56.522;14.950;2022-11-20T03:11:39;2.40;99.90
11764;DHT22;5939;56.522;14.950;2022-11-20T03:14:05;2.40;99.90
11764;DHT22;5939;56.522;14.950;2022-11-20T03:16:31;2.40;99.90
11764;DHT22;5939;56.522;14.950;2022-11-20T03:18:58;2.40;99.90
11764;DHT22;5939;56.522;14.950;2022-11-20T03:21:24;2.40;99.90
11764;DHT22;5939;56.522;14.950;2022-11-20T03:23:49;2.40;99.90
11764;DHT22;5939;56.522;14.950;2022-11-20T03:26:19;2.40;99.90
11764;DHT22;5939;56.522;14.950;2022-11-20T03:28:50;2.30;99.90
11764;DHT22;5939;56.522;14.950;2022-11-20T03:31:18;2.40;99.90
11764;DHT22;5939;56.522;14.950;2022-11-20T03:33:43;2.40;99.90
11764;DHT22;5939;56.522;14.950;2022-11-20T03:36:11;2.40;99.90
11764;DHT22;5939;56.522;14.950;2022-11-20T03:38:38;2.30;99.90
11764;DHT22;5939;56.522;14.950;2022-11-20T03:41:24;2.30;99.90
11764;DHT22;5939;56.522;14.950;2022-11-20T03:43:51;2.30;99.90
11764;DHT22;5939;56.522;14.950;2022-11-20T03:46:17;2.30;99.90
11764;DHT22;5939;56.522;14.950;2022-11-20T03:48:43;2.30;99.90
11764;DHT22;5939;56.522;14.950;2022-11-20T03:53:36;2.30;99.90
11764;DHT22;5939;56.522;14.950;2022-11-20T03:56:02;2.30;99.90
11764;DHT22;5939;56.522;14.950;2022-11-20T03:58:28;2.30;99.90
11764;DHT22;5939;56.522;14.950;2022-11-20T04:00:53;2.30;99.90
11764;DHT22;5939;56.522;14.950;2022-11-20T04:03:19;2.30;99.90
11764;DHT22;5939;56.522;14.950;2022-11-20T04:05:44;2.20;99.90
11764;DHT22;5939;56.522;14.950;2022-11-20T04:08:10;2.20;99.90
11764;DHT22;5939;56.522;14.950;2022-11-20T04:10:36;2.20;99.90
11764;DHT22;5939;56.522;14.950;2022-11-20T04:13:01;2.20;99.90
11764;DHT22;5939;56.522;14.950;2022-11-20T04:15:27;2.20;99.90
11764;DHT22;5939;56.522;14.950;2022-11-20T04:17:54;2.20;99.90
11764;DHT22;5939;56.522;14.950;2022-11-20T04:20:19;2.20;99.90
11764;DHT22;5939;56.522;14.950;2022-11-20T04:22:45;2.20;99.90
11764;DHT22;5939;56.522;14.950;2022-11-20T04:25:11;2.20;99.90
11764;DHT22;5939;56.522;14.950;2022-11-20T04:27:36;2.20;99.90
11764;DHT22;5939;56.522;14.950;2022-11-20T04:30:02;2.20;99.90
11764;DHT22;5939;56.522;14.950;2022-11-20T04:32:28;2.20;99.90
11764;DHT22;5939;56.522;14.950;2022-11-20T04:34:53;2.20;99.90
11764;DHT22;5939;56.522;14.950;2022-11-20T04:37:19;2.20;99.90
11764;DHT22;5939;56.522;14.950;2022-11-20T04:39:44;2.20;99.90
11764;DHT22;5939;56.522;14.950;2022-11-20T04:42:10;2.20;99.90
11764;DHT22;5939;56.522;14.950;2022-11-20T04:44:54;2.20;99.90
11764;DHT22;5939;56.522;14.950;2022-11-20T04:47:20;2.20;99.90
11764;DHT22;5939;56.522;14.950;2022-11-20T04:49:46;2.20;99.90
11764;DHT22;5939;56.522;14.950;2022-11-20T04:52:12;2.20;99.90
11764;DHT22;5939;56.522;14.950;2022-11-20T04:54:38;2.20;99.90
11764;DHT22;5939;56.522;14.950;2022-11-20T04:57:03;2.20;99.90
11764;DHT22;5939;56.522;14.950;2022-11-20T04:59:29;2.00;99.90
11764;DHT22;5939;56.522;14.950;2022-11-20T05:01:55;2.10;99.90
11764;DHT22;5939;56.522;14.950;2022-11-20T05:04:20;2.20;99.90
11764;DHT22;5939;56.522;14.950;2022-11-20T05:06:46;2.10;99.90
11764;DHT22;5939;56.522;14.950;2022-11-20T05:09:12;2.10;99.90
11764;DHT22;5939;56.522;14.950;2022-11-20T05:11:38;2.10;99.90
11764;DHT22;5939;56.522;14.950;2022-11-20T05:14:04;2.10;99.90
11764;DHT22;5939;56.522;14.950;2022-11-20T05:16:29;2.10;99.90
11764;DHT22;5939;56.522;14.950;2022-11-20T05:18:55;2.10;99.90
11764;DHT22;5939;56.522;14.950;2022-11-20T05:21:21;2.10;99.90
11764;DHT22;5939;56.522;14.950;2022-11-20T05:23:47;2.10;99.90
11764;DHT22;5939;56.522;14.950;2022-11-20T05:26:22;2.10;99.90
11764;DHT22;5939;56.522;14.950;2022-11-20T05:28:48;2.10;99.90
11764;DHT22;5939;56.522;14.950;2022-11-20T05:31:17;2.10;99.90
11764;DHT22;5939;56.522;14.950;2022-11-20T05:33:44;2.10;99.90
11764;DHT22;5939;56.522;14.950;2022-11-20T05:36:13;2.10;99.90
11764;DHT22;5939;56.522;14.950;2022-11-20T05:38:40;2.10;99.90
11764;DHT22;5939;56.522;14.950;2022-11-20T05:41:11;2.00;99.90
11764;DHT22;5939;56.522;14.950;2022-11-20T05:43:39;2.00;99.90
11764;DHT22;5939;56.522;14.950;2022-11-20T05:46:06;2.00;99.90
11764;DHT22;5939;56.522;14.950;2022-11-20T05:48:33;2.00;99.90
11764;DHT22;5939;56.522;14.950;2022-11-20T05:51:00;2.00;99.90
11764;DHT22;5939;56.522;14.950;2022-11-20T05:53:26;2.00;99.90
11764;DHT22;5939;56.522;14.950;2022-11-20T05:56:12;2.00;99.90
11764;DHT22;5939;56.522;14.950;2022-11-20T05:58:38;1.20;99.90
11764;DHT22;5939;56.522;14.950;2022-11-20T06:01:12;2.00;99.90
11764;DHT22;5939;56.522;14.950;2022-11-20T06:03:39;2.00;99.90
11764;DHT22;5939;56.522;14.950;2022-11-20T06:06:05;2.00;99.90
11764;DHT22;5939;56.522;14.950;2022-11-20T06:08:32;2.00;99.90
11764;DHT22;5939;56.522;14.950;2022-11-20T06:10:58;2.00;99.90
11764;DHT22;5939;56.522;14.950;2022-11-20T06:13:24;2.00;99.90
11764;DHT22;5939;56.522;14.950;2022-11-20T06:15:53;2.00;99.90
11764;DHT22;5939;56.522;14.950;2022-11-20T06:18:19;2.00;99.90
11764;DHT22;5939;56.522;14.950;2022-11-20T06:20:45;1.90;99.90
11764;DHT22;5939;56.522;14.950;2022-11-20T06:23:12;1.90;99.90
11764;DHT22;5939;56.522;14.950;2022-11-20T06:25:42;1.90;99.90
11764;DHT22;5939;56.522;14.950;2022-11-20T06:28:08;1.90;99.90
11764;DHT22;5939;56.522;14.950;2022-11-20T06:30:34;1.90;99.90
11764;DHT22;5939;56.522;14.950;2022-11-20T06:33:00;1.90;99.90
11764;DHT22;5939;56.522;14.950;2022-11-20T06:35:26;1.90;99.90
11764;DHT22;5939;56.522;14.950;2022-11-20T06:37:51;1.90;99.90
11764;DHT22;5939;56.522;14.950;2022-11-20T06:40:17;1.90;99.90
11764;DHT22;5939;56.522;14.950;2022-11-20T06:42:43;1.90;99.90
11764;DHT22;5939;56.522;14.950;2022-11-20T06:45:09;1.90;99.90
11764;DHT22;5939;56.522;14.950;2022-11-20T06:47:34;1.90;99.90
11764;DHT22;5939;56.522;14.950;2022-11-20T06:50:00;1.80;99.90
11764;DHT22;5939;56.522;14.950;2022-11-20T06:52:25;1.80;99.90
11764;DHT22;5939;56.522;14.950;2022-11-20T06:54:52;1.80;99.90
11764;DHT22;5939;56.522;14.950;2022-11-20T06:57:18;1.80;99.90
11764;DHT22;5939;56.522;14.950;2022-11-20T06:59:44;1.80;99.90
11764;DHT22;5939;56.522;14.950;2022-11-20T07:02:10;1.80;99.90
11764;DHT22;5939;56.522;14.950;2022-11-20T07:04:37;1.80;99.90
11764;DHT22;5939;56.522;14.950;2022-11-20T07:07:03;1.80;99.90
11764;DHT22;5939;56.522;14.950;2022-11-20T07:09:28;1.80;99.90
11764;DHT22;5939;56.522;14.950;2022-11-20T07:11:54;1.80;99.90
11764;DHT22;5939;56.522;14.950;2022-11-20T07:14:19;1.80;99.90
11764;DHT22;5939;56.522;14.950;2022-11-20T07:16:45;1.80;99.90
11764;DHT22;5939;56.522;14.950;2022-11-20T07:19:11;1.80;99.90
11764;DHT22;5939;56.522;14.950;2022-11-20T07:21:37;1.80;99.90
11764;DHT22;5939;56.522;14.950;2022-11-20T07:24:03;1.80;99.90
11764;DHT22;5939;56.522;14.950;2022-11-20T07:26:28;1.80;99.90
11764;DHT22;5939;56.522;14.950;2022-11-20T07:28:54;1.80;99.90
11764;DHT22;5939;56.522;14.950;2022-11-20T07:31:19;1.80;99.90
11764;DHT22;5939;56.522;14.950;2022-11-20T07:33:45;1.80;99.90
11764;DHT22;5939;56.522;14.950;2022-11-20T07:36:11;1.80;99.90
11764;DHT22;5939;56.522;14.950;2022-11-20T07:38:37;1.80;99.90
11764;DHT22;5939;56.522;14.950;2022-11-20T07:41:03;1.80;99.90
11764;DHT22;5939;56.522;14.950;2022-11-20T07:43:29;1.70;99.90
11764;DHT22;5939;56.522;14.950;2022-11-20T07:45:56;1.80;99.90
11764;DHT22;5939;56.522;14.950;2022-11-20T07:48:22;1.80;99.90
11764;DHT22;5939;56.522;14.950;2022-11-20T07:50:48;1.80;99.90
11764;DHT22;5939;56.522;14.950;2022-11-20T07:53:13;1.80;99.90
11764;DHT22;5939;56.522;14.950;2022-11-20T07:55:39;1.80;99.90
11764;DHT22;5939;56.522;14.950;2022-11-20T07:58:05;1.80;99.90
11764;DHT22;5939;56.522;14.950;2022-11-20T08:00:30;1.80;99.90
11764;DHT22;5939;56.522;14.950;2022-11-20T08:02:56;1.80;99.90
11764;DHT22;5939;56.522;14.950;2022-11-20T08:05:22;1.80;99.90
11764;DHT22;5939;56.522;14.950;2022-11-20T08:07:48;1.80;99.90
11764;DHT22;5939;56.522;14.950;2022-11-20T08:10:15;1.80;99.90
11764;DHT22;5939;56.522;14.950;2022-11-20T08:12:48;1.80;99.90
11764;DHT22;5939;56.522;14.950;2022-11-20T08:15:33;1.80;99.90
11764;DHT22;5939;56.522;14.950;2022-11-20T08:18:07;1.80;99.90
11764;DHT22;5939;56.522;14.950;2022-11-20T08:20:33;1.80;99.90
11764;DHT22;5939;56.522;14.950;2022-11-20T08:23:00;1.80;99.90
11764;DHT22;5939;56.522;14.950;2022-11-20T08:25:30;1.80;99.90
11764;DHT22;5939;56.522;14.950;2022-11-20T08:28:00;1.80;99.90
11764;DHT22;5939;56.522;14.950;2022-11-20T08:30:26;1.80;99.90
11764;DHT22;5939;56.522;14.950;2022-11-20T08:32:53;1.80;99.90
11764;DHT22;5939;56.522;14.950;2022-11-20T08:35:19;1.80;99.90
11764;DHT22;5939;56.522;14.950;2022-11-20T08:37:48;1.80;99.90
11764;DHT22;5939;56.522;14.950;2022-11-20T08:40:15;1.80;99.90
11764;DHT22;5939;56.522;14.950;2022-11-20T08:42:50;1.80;99.90
11764;DHT22;5939;56.522;14.950;2022-11-20T08:45:17;1.80;99.90
11764;DHT22;5939;56.522;14.950;2022-11-20T08:47:44;1.90;99.90
11764;DHT22;5939;56.522;14.950;2022-11-20T08:50:14;1.90;99.90
11764;DHT22;5939;56.522;14.950;2022-11-20T08:52:40;1.90;99.90
11764;DHT22;5939;56.522;14.950;2022-11-20T08:55:06;1.90;99.90
11764;DHT22;5939;56.522;14.950;2022-11-20T08:57:36;1.90;99.90
11764;DHT22;5939;56.522;14.950;2022-11-20T09:00:04;1.90;99.90
11764;DHT22;5939;56.522;14.950;2022-11-20T09:02:30;1.90;99.90
11764;DHT22;5939;56.522;14.950;2022-11-20T09:04:55;2.00;99.90
11764;DHT22;5939;56.522;14.950;2022-11-20T09:07:21;2.00;99.90
11764;DHT22;5939;56.522;14.950;2022-11-20T09:09:47;2.00;99.90
11764;DHT22;5939;56.522;14.950;2022-11-20T09:12:13;2.00;99.90
11764;DHT22;5939;56.522;14.950;2022-11-20T09:14:39;2.00;99.90
11764;DHT22;5939;56.522;14.950;2022-11-20T09:17:04;2.00;99.90
11764;DHT22;5939;56.522;14.950;2022-11-20T09:19:30;2.00;99.90
11764;DHT22;5939;56.522;14.950;2022-11-20T09:21:55;2.10;99.90
11764;DHT22;5939;56.522;14.950;2022-11-20T09:24:21;2.00;99.90
11764;DHT22;5939;56.522;14.950;2022-11-20T09:26:47;2.10;99.90
11764;DHT22;5939;56.522;14.950;2022-11-20T09:29:12;2.10;99.90
11764;DHT22;5939;56.522;14.950;2022-11-20T09:31:38;2.10;99.90
11764;DHT22;5939;56.522;14.950;2022-11-20T09:34:04;2.10;99.90
11764;DHT22;5939;56.522;14.950;2022-11-20T09:36:29;2.10;99.90
11764;DHT22;5939;56.522;14.950;2022-11-20T09:38:55;2.20;99.90
11764;DHT22;5939;56.522;14.950;2022-11-20T09:47:01;2.20;99.90
11764;DHT22;5939;56.522;14.950;2022-11-20T09:49:53;2.20;99.90
11764;DHT22;5939;56.522;14.950;2022-11-20T09:55:17;2.30;99.90
11764;DHT22;5939;56.522;14.950;2022-11-20T09:57:46;2.30;99.90
11764;DHT22;5939;56.522;14.950;2022-11-20T10:00:14;2.30;99.90
11764;DHT22;5939;56.522;14.950;2022-11-20T10:02:55;2.40;99.90
11764;DHT22;5939;56.522;14.950;2022-11-20T10:05:51;2.40;99.90
11764;DHT22;5939;56.522;14.950;2022-11-20T10:10:54;2.50;99.90
11764;DHT22;5939;56.522;14.950;2022-11-20T10:16:10;2.50;99.90
11764;DHT22;5939;56.522;14.950;2022-11-20T10:30:08;2.60;99.90
11764;DHT22;5939;56.522;14.950;2022-11-20T10:32:46;2.70;99.90
11764;DHT22;5939;56.522;14.950;2022-11-20T10:35:35;2.70;99.90
11764;DHT22;5939;56.522;14.950;2022-11-20T10:38:12;2.70;99.90
11764;DHT22;5939;56.522;14.950;2022-11-20T10:40:46;2.80;99.90
11764;DHT22;5939;56.522;14.950;2022-11-20T10:43:17;2.80;99.90
11764;DHT22;5939;56.522;14.950;2022-11-20T10:46:00;2.80;99.90
11764;DHT22;5939;56.522;14.950;2022-11-20T10:48:28;2.80;99.90
11764;DHT22;5939;56.522;14.950;2022-11-20T10:51:18;2.90;99.90
11764;DHT22;5939;56.522;14.950;2022-11-20T10:56:45;2.90;99.90
11764;DHT22;5939;56.522;14.950;2022-11-20T10:59:34;3.00;99.90
11764;DHT22;5939;56.522;14.950;2022-11-20T11:02:01;3.00;99.90
11764;DHT22;5939;56.522;14.950;2022-11-20T11:07:23;3.10;99.90
11764;DHT22;5939;56.522;14.950;2022-11-20T11:09:53;3.10;99.90
11764;DHT22;5939;56.522;14.950;2022-11-20T11:12:24;3.10;99.90
11764;DHT22;5939;56.522;14.950;2022-11-20T11:14:53;3.20;99.90
11764;DHT22;5939;56.522;14.950;2022-11-20T11:17:27;3.20;99.90
11764;DHT22;5939;56.522;14.950;2022-11-20T11:20:01;3.20;99.90
11764;DHT22;5939;56.522;14.950;2022-11-20T11:22:32;3.30;99.90
11764;DHT22;5939;56.522;14.950;2022-11-20T11:24:59;3.30;99.90
11764;DHT22;5939;56.522;14.950;2022-11-20T11:27:24;3.30;99.90
11764;DHT22;5939;56.522;14.950;2022-11-20T11:30:02;3.40;99.90
11764;DHT22;5939;56.522;14.950;2022-11-20T11:32:28;3.40;99.90
11764;DHT22;5939;56.522;14.950;2022-11-20T11:35:03;3.40;99.90
11764;DHT22;5939;56.522;14.950;2022-11-20T11:37:37;3.50;99.90
11764;DHT22;5939;56.522;14.950;2022-11-20T11:40:05;3.50;99.90
11764;DHT22;5939;56.522;14.950;2022-11-20T11:42:32;3.50;99.90
11764;DHT22;5939;56.522;14.950;2022-11-20T11:45:00;3.50;99.90
11764;DHT22;5939;56.522;14.950;2022-11-20T11:47:36;3.60;99.90
11764;DHT22;5939;56.522;14.950;2022-11-20T12:06:40;3.70;99.90
11764;DHT22;5939;56.522;14.950;2022-11-20T12:09:11;3.70;99.90
11764;DHT22;5939;56.522;14.950;2022-11-20T12:14:21;3.80;99.90
11764;DHT22;5939;56.522;14.950;2022-11-20T12:16:52;3.80;99.90
11764;DHT22;5939;56.522;14.950;2022-11-20T12:19:19;3.80;99.90
11764;DHT22;5939;56.522;14.950;2022-11-20T12:25:27;3.90;99.90
11764;DHT22;5939;56.522;14.950;2022-11-20T12:30:10;3.90;99.90
11764;DHT22;5939;56.522;14.950;2022-11-20T12:43:36;4.00;99.90
11764;DHT22;5939;56.522;14.950;2022-11-20T12:46:44;4.00;99.90
11764;DHT22;5939;56.522;14.950;2022-11-20T12:52:06;4.00;99.90
11764;DHT22;5939;56.522;14.950;2022-11-20T13:00:15;4.10;99.90
11764;DHT22;5939;56.522;14.950;2022-11-20T13:05:34;4.10;99.90
11764;DHT22;5939;56.522;14.950;2022-11-20T13:08:02;4.10;99.90
11764;DHT22;5939;56.522;14.950;2022-11-20T13:10:58;4.10;99.90
11764;DHT22;5939;56.522;14.950;2022-11-20T13:16:24;4.20;99.90
11764;DHT22;5939;56.522;14.950;2022-11-20T13:18:52;4.20;99.90
11764;DHT22;5939;56.522;14.950;2022-11-20T13:21:23;4.20;99.90
11764;DHT22;5939;56.522;14.950;2022-11-20T13:24:06;4.20;99.90
11764;DHT22;5939;56.522;14.950;2022-11-20T13:26:32;4.20;99.90
11764;DHT22;5939;56.522;14.950;2022-11-20T13:29:03;4.20;99.90
11764;DHT22;5939;56.522;14.950;2022-11-20T13:31:35;4.20;99.90
11764;DHT22;5939;56.522;14.950;2022-11-20T13:34:04;4.30;99.90
11764;DHT22;5939;56.522;14.950;2022-11-20T13:36:31;4.20;99.90
11764;DHT22;5939;56.522;14.950;2022-11-20T13:38:58;4.30;99.90
11764;DHT22;5939;56.522;14.950;2022-11-20T13:41:35;4.30;99.90
11764;DHT22;5939;56.522;14.950;2022-11-20T13:46:52;4.30;99.90
11764;DHT22;5939;56.522;14.950;2022-11-20T13:49:39;4.30;99.90
11764;DHT22;5939;56.522;14.950;2022-11-20T13:54:48;4.30;99.90
11764;DHT22;5939;56.522;14.950;2022-11-20T14:00:17;4.30;99.90
11764;DHT22;5939;56.522;14.950;2022-11-20T14:02:44;4.30;99.90
11764;DHT22;5939;56.522;14.950;2022-11-20T14:05:21;4.30;99.90
11764;DHT22;5939;56.522;14.950;2022-11-20T14:07:48;4.30;99.90
11764;DHT22;5939;56.522;14.950;2022-11-20T14:10:24;4.30;99.90
11764;DHT22;5939;56.522;14.950;2022-11-20T14:12:50;4.30;99.90
11764;DHT22;5939;56.522;14.950;2022-11-20T14:15:33;4.30;99.90
11764;DHT22;5939;56.522;14.950;2022-11-20T14:18:10;4.30;99.90
11764;DHT22;5939;56.522;14.950;2022-11-20T14:20:38;4.30;99.90
11764;DHT22;5939;56.522;14.950;2022-11-20T14:23:04;4.30;99.90
11764;DHT22;5939;56.522;14.950;2022-11-20T14:25:30;4.40;99.90
11764;DHT22;5939;56.522;14.950;2022-11-20T14:28:00;4.30;99.90
11764;DHT22;5939;56.522;14.950;2022-11-20T14:30:44;4.30;99.90
11764;DHT22;5939;56.522;14.950;2022-11-20T14:33:11;4.40;99.90
11764;DHT22;5939;56.522;14.950;2022-11-20T14:35:44;4.40;99.90
11764;DHT22;5939;56.522;14.950;2022-11-20T14:38:17;4.30;99.90
11764;DHT22;5939;56.522;14.950;2022-11-20T14:40:43;4.30;99.90
11764;DHT22;5939;56.522;14.950;2022-11-20T14:46:02;4.30;99.90
11764;DHT22;5939;56.522;14.950;2022-11-20T14:48:52;4.30;99.90
11764;DHT22;5939;56.522;14.950;2022-11-20T14:51:34;4.30;99.90
11764;DHT22;5939;56.522;14.950;2022-11-20T14:54:17;4.30;99.90
11764;DHT22;5939;56.522;14.950;2022-11-20T14:56:57;4.30;99.90
11764;DHT22;5939;56.522;14.950;2022-11-20T14:59:34;4.30;99.90
11764;DHT22;5939;56.522;14.950;2022-11-20T15:02:10;4.30;99.90
11764;DHT22;5939;56.522;14.950;2022-11-20T15:04:46;4.30;99.90
11764;DHT22;5939;56.522;14.950;2022-11-20T15:07:23;4.30;99.90
11764;DHT22;5939;56.522;14.950;2022-11-20T15:10:12;4.30;99.90
11764;DHT22;5939;56.522;14.950;2022-11-20T15:12:46;4.30;99.90
11764;DHT22;5939;56.522;14.950;2022-11-20T15:15:16;4.30;99.90
11764;DHT22;5939;56.522;14.950;2022-11-20T15:17:44;4.30;99.90
11764;DHT22;5939;56.522;14.950;2022-11-20T15:20:14;4.30;99.90
11764;DHT22;5939;56.522;14.950;2022-11-20T15:22:40;4.20;99.90
11764;DHT22;5939;56.522;14.950;2022-11-20T15:25:17;4.20;99.90
11764;DHT22;5939;56.522;14.950;2022-11-20T15:27:44;4.20;99.90
11764;DHT22;5939;56.522;14.950;2022-11-20T15:30:18;4.20;99.90
11764;DHT22;5939;56.522;14.950;2022-11-20T15:32:44;4.20;99.90
11764;DHT22;5939;56.522;14.950;2022-11-20T15:35:10;4.20;99.90
11764;DHT22;5939;56.522;14.950;2022-11-20T15:37:39;4.20;99.90
11764;DHT22;5939;56.522;14.950;2022-11-20T15:40:06;4.20;99.90
11764;DHT22;5939;56.522;14.950;2022-11-20T15:42:32;4.20;99.90
11764;DHT22;5939;56.522;14.950;2022-11-20T15:44:58;4.30;99.90
11764;DHT22;5939;56.522;14.950;2022-11-20T15:47:33;4.10;99.90
11764;DHT22;5939;56.522;14.950;2022-11-20T15:49:59;4.20;99.90
11764;DHT22;5939;56.522;14.950;2022-11-20T15:52:25;4.20;99.90
11764;DHT22;5939;56.522;14.950;2022-11-20T15:54:50;4.20;99.90
11764;DHT22;5939;56.522;14.950;2022-11-20T15:57:16;4.10;99.90
11764;DHT22;5939;56.522;14.950;2022-11-20T15:59:41;4.10;99.90
11764;DHT22;5939;56.522;14.950;2022-11-20T16:02:14;4.10;99.90
11764;DHT22;5939;56.522;14.950;2022-11-20T16:04:41;4.10;99.90
11764;DHT22;5939;56.522;14.950;2022-11-20T16:07:07;4.10;99.90
11764;DHT22;5939;56.522;14.950;2022-11-20T16:09:32;4.00;99.90
11764;DHT22;5939;56.522;14.950;2022-11-20T16:11:58;4.00;99.90
11764;DHT22;5939;56.522;14.950;2022-11-20T16:14:25;4.00;99.90
11764;DHT22;5939;56.522;14.950;2022-11-20T16:17:09;4.00;99.90
11764;DHT22;5939;56.522;14.950;2022-11-20T16:19:35;4.00;99.90
11764;DHT22;5939;56.522;14.950;2022-11-20T16:22:01;4.00;99.90
11764;DHT22;5939;56.522;14.950;2022-11-20T16:24:27;4.00;99.90
11764;DHT22;5939;56.522;14.950;2022-11-20T16:26:56;3.90;99.90
11764;DHT22;5939;56.522;14.950;2022-11-20T16:29:22;3.90;99.90
11764;DHT22;5939;56.522;14.950;2022-11-20T16:31:48;3.90;99.90
11764;DHT22;5939;56.522;14.950;2022-11-20T16:34:15;3.90;99.90
11764;DHT22;5939;56.522;14.950;2022-11-20T16:36:42;3.90;99.90
11764;DHT22;5939;56.522;14.950;2022-11-20T16:39:09;3.90;99.90
11764;DHT22;5939;56.522;14.950;2022-11-20T16:41:35;3.90;99.90
11764;DHT22;5939;56.522;14.950;2022-11-20T16:44:05;3.90;99.90
11764;DHT22;5939;56.522;14.950;2022-11-20T16:46:31;3.90;99.90
11764;DHT22;5939;56.522;14.950;2022-11-20T16:49:05;3.80;99.90
11764;DHT22;5939;56.522;14.950;2022-11-20T16:51:34;3.80;99.90
11764;DHT22;5939;56.522;14.950;2022-11-20T16:54:04;3.80;99.90
11764;DHT22;5939;56.522;14.950;2022-11-20T16:56:30;3.80;99.90
11764;DHT22;5939;56.522;14.950;2022-11-20T16:58:57;3.80;99.90
11764;DHT22;5939;56.522;14.950;2022-11-20T17:01:24;3.80;99.90
11764;DHT22;5939;56.522;14.950;2022-11-20T17:03:55;3.80;99.90
11764;DHT22;5939;56.522;14.950;2022-11-20T17:06:28;3.80;99.90
11764;DHT22;5939;56.522;14.950;2022-11-20T17:08:55;3.80;99.90
11764;DHT22;5939;56.522;14.950;2022-11-20T17:11:21;3.80;99.90
11764;DHT22;5939;56.522;14.950;2022-11-20T17:13:47;3.70;99.90
11764;DHT22;5939;56.522;14.950;2022-11-20T17:16:15;3.80;99.90
11764;DHT22;5939;56.522;14.950;2022-11-20T17:18:41;3.80;99.90
11764;DHT22;5939;56.522;14.950;2022-11-20T17:21:07;3.70;99.90
11764;DHT22;5939;56.522;14.950;2022-11-20T17:23:51;3.70;99.90
11764;DHT22;5939;56.522;14.950;2022-11-20T17:26:19;3.70;99.90
11764;DHT22;5939;56.522;14.950;2022-11-20T17:29:06;3.70;99.90
11764;DHT22;5939;56.522;14.950;2022-11-20T17:31:33;3.70;99.90